sensor_id;sensor_type;location;lat;lon;timestamp;temperature;humidity
60473;DHT22;46318;52.716;6.444;2023-07-31T00:01:03;16.60;88.60
60473;DHT22;46318;52.716;6.444;2023-07-31T00:03:29;16.60;88.50
60473;DHT22;46318;52.716;6.444;2023-07-31T00:05:54;16.60;88.60
60473;DHT22;46318;52.716;6.444;2023-07-31T00:08:20;16.60;88.80
60473;DHT22;46318;52.716;6.444;2023-07-31T00:10:46;16.60;89.00
60473;DHT22;46318;52.716;6.444;2023-07-31T00:13:12;16.50;88.90
60473;DHT22;46318;52.716;6.444;2023-07-31T00:15:38;16.50;89.10
60473;DHT22;46318;52.716;6.444;2023-07-31T00:18:04;16.50;89.20
60473;DHT22;46318;52.716;6.444;2023-07-31T00:20:29;16.50;89.20
60473;DHT22;46318;52.716;6.444;2023-07-31T00:22:55;16.40;89.60
60473;DHT22;46318;52.716;6.444;2023-07-31T00:25:21;16.50;89.40
60473;DHT22;46318;52.716;6.444;2023-07-31T00:27:47;16.40;89.50
60473;DHT22;46318;52.716;6.444;2023-07-31T00:30:13;16.40;89.80
60473;DHT22;46318;52.716;6.444;2023-07-31T00:32:39;16.40;89.80
60473;DHT22;46318;52.716;6.444;2023-07-31T00:35:05;16.30;89.90
60473;DHT22;46318;52.716;6.444;2023-07-31T00:37:31;16.30;90.20
60473;DHT22;46318;52.716;6.444;2023-07-31T00:39:57;16.30;90.20
60473;DHT22;46318;52.716;6.444;2023-07-31T00:42:24;16.30;90.40
60473;DHT22;46318;52.716;6.444;2023-07-31T00:44:51;16.30;90.60
60473;DHT22;46318;52.716;6.444;2023-07-31T00:47:17;16.30;90.70
60473;DHT22;46318;52.716;6.444;2023-07-31T00:49:45;16.30;90.70
60473;DHT22;46318;52.716;6.444;2023-07-31T00:52:12;16.20;91.10
60473;DHT22;46318;52.716;6.444;2023-07-31T00:54:38;16.20;91.30
60473;DHT22;46318;52.716;6.444;2023-07-31T00:57:05;16.20;91.40
60473;DHT22;46318;52.716;6.444;2023-07-31T00:59:33;16.10;91.70
60473;DHT22;46318;52.716;6.444;2023-07-31T01:01:59;16.10;91.80
60473;DHT22;46318;52.716;6.444;2023-07-31T01:04:25;16.10;91.80
60473;DHT22;46318;52.716;6.444;2023-07-31T01:12:47;16.10;91.90
60473;DHT22;46318;52.716;6.444;2023-07-31T01:15:13;16.10;91.90
60473;DHT22;46318;52.716;6.444;2023-07-31T01:17:42;16.10;92.10
60473;DHT22;46318;52.716;6.444;2023-07-31T01:20:21;16.10;92.00
60473;DHT22;46318;52.716;6.444;2023-07-31T01:26:25;16.10;92.70
60473;DHT22;46318;52.716;6.444;2023-07-31T01:31:37;16.10;92.40
60473;DHT22;46318;52.716;6.444;2023-07-31T01:34:04;16.00;92.60
60473;DHT22;46318;52.716;6.444;2023-07-31T01:36:30;16.00;92.70
60473;DHT22;46318;52.716;6.444;2023-07-31T01:39:01;16.00;92.90
60473;DHT22;46318;52.716;6.444;2023-07-31T01:41:27;16.10;92.70
60473;DHT22;46318;52.716;6.444;2023-07-31T01:43:53;16.10;92.90
60473;DHT22;46318;52.716;6.444;2023-07-31T01:46:19;16.10;93.00
60473;DHT22;46318;52.716;6.444;2023-07-31T01:48:45;16.10;93.00
60473;DHT22;46318;52.716;6.444;2023-07-31T01:51:11;16.10;92.90
60473;DHT22;46318;52.716;6.444;2023-07-31T01:53:37;16.20;93.00
60473;DHT22;46318;52.716;6.444;2023-07-31T01:56:03;16.20;93.10
60473;DHT22;46318;52.716;6.444;2023-07-31T01:58:29;16.20;93.00
60473;DHT22;46318;52.716;6.444;2023-07-31T02:00:55;16.20;93.10
60473;DHT22;46318;52.716;6.444;2023-07-31T02:03:21;16.20;93.30
60473;DHT22;46318;52.716;6.444;2023-07-31T02:05:48;16.20;93.20
60473;DHT22;46318;52.716;6.444;2023-07-31T02:08:15;16.20;93.50
60473;DHT22;46318;52.716;6.444;2023-07-31T02:10:41;16.20;93.60
60473;DHT22;46318;52.716;6.444;2023-07-31T02:13:07;16.20;93.50
60473;DHT22;46318;52.716;6.444;2023-07-31T02:15:33;16.20;93.60
60473;DHT22;46318;52.716;6.444;2023-07-31T02:18:02;16.30;93.70
60473;DHT22;46318;52.716;6.444;2023-07-31T02:20:28;16.20;93.70
60473;DHT22;46318;52.716;6.444;2023-07-31T02:22:54;16.30;93.70
60473;DHT22;46318;52.716;6.444;2023-07-31T02:25:19;16.30;93.70
60473;DHT22;46318;52.716;6.444;2023-07-31T02:27:45;16.30;93.60
60473;DHT22;46318;52.716;6.444;2023-07-31T02:30:11;16.30;93.40
60473;DHT22;46318;52.716;6.444;2023-07-31T02:32:38;16.40;93.70
60473;DHT22;46318;52.716;6.444;2023-07-31T02:35:05;16.30;93.80
60473;DHT22;46318;52.716;6.444;2023-07-31T02:37:31;16.40;94.00
60473;DHT22;46318;52.716;6.444;2023-07-31T02:39:56;16.40;93.80
60473;DHT22;46318;52.716;6.444;2023-07-31T02:42:22;16.40;93.70
60473;DHT22;46318;52.716;6.444;2023-07-31T02:44:48;16.40;93.80
60473;DHT22;46318;52.716;6.444;2023-07-31T02:47:16;16.40;93.90
60473;DHT22;46318;52.716;6.444;2023-07-31T02:49:42;16.40;94.10
60473;DHT22;46318;52.716;6.444;2023-07-31T02:52:08;16.40;94.10
60473;DHT22;46318;52.716;6.444;2023-07-31T02:54:34;16.40;94.20
60473;DHT22;46318;52.716;6.444;2023-07-31T02:57:00;16.50;94.50
60473;DHT22;46318;52.716;6.444;2023-07-31T02:59:28;16.50;94.40
60473;DHT22;46318;52.716;6.444;2023-07-31T03:01:54;16.50;94.30
60473;DHT22;46318;52.716;6.444;2023-07-31T03:04:20;16.50;94.30
60473;DHT22;46318;52.716;6.444;2023-07-31T03:06:46;16.50;94.40
60473;DHT22;46318;52.716;6.444;2023-07-31T03:09:11;16.50;94.40
60473;DHT22;46318;52.716;6.444;2023-07-31T03:11:37;16.50;94.40
60473;DHT22;46318;52.716;6.444;2023-07-31T03:14:03;16.50;94.70
60473;DHT22;46318;52.716;6.444;2023-07-31T03:16:29;16.50;94.60
60473;DHT22;46318;52.716;6.444;2023-07-31T03:18:55;16.50;94.60
60473;DHT22;46318;52.716;6.444;2023-07-31T03:21:21;16.50;94.40
60473;DHT22;46318;52.716;6.444;2023-07-31T03:23:46;16.50;94.60
60473;DHT22;46318;52.716;6.444;2023-07-31T03:26:12;16.50;94.80
60473;DHT22;46318;52.716;6.444;2023-07-31T03:28:39;16.50;94.80
60473;DHT22;46318;52.716;6.444;2023-07-31T03:31:04;16.50;95.00
60473;DHT22;46318;52.716;6.444;2023-07-31T03:33:32;16.50;94.80
60473;DHT22;46318;52.716;6.444;2023-07-31T03:35:58;16.50;95.00
60473;DHT22;46318;52.716;6.444;2023-07-31T03:38:24;16.60;95.20
60473;DHT22;46318;52.716;6.444;2023-07-31T03:40:49;16.60;95.20
60473;DHT22;46318;52.716;6.444;2023-07-31T03:43:15;16.60;95.30
60473;DHT22;46318;52.716;6.444;2023-07-31T03:45:41;16.60;95.30
60473;DHT22;46318;52.716;6.444;2023-07-31T03:48:07;16.60;95.40
60473;DHT22;46318;52.716;6.444;2023-07-31T03:50:35;16.60;95.70
60473;DHT22;46318;52.716;6.444;2023-07-31T03:53:05;16.60;95.70
60473;DHT22;46318;52.716;6.444;2023-07-31T03:55:33;16.60;95.60
60473;DHT22;46318;52.716;6.444;2023-07-31T03:57:59;16.70;95.80
60473;DHT22;46318;52.716;6.444;2023-07-31T04:00:27;16.60;96.00
60473;DHT22;46318;52.716;6.444;2023-07-31T04:02:54;16.70;95.80
60473;DHT22;46318;52.716;6.444;2023-07-31T04:05:22;16.70;95.80
60473;DHT22;46318;52.716;6.444;2023-07-31T04:08:01;16.70;96.10
60473;DHT22;46318;52.716;6.444;2023-07-31T04:10:34;16.70;96.20
60473;DHT22;46318;52.716;6.444;2023-07-31T04:13:04;16.70;96.20
60473;DHT22;46318;52.716;6.444;2023-07-31T04:15:38;16.70;96.30
60473;DHT22;46318;52.716;6.444;2023-07-31T04:18:07;16.70;96.30
60473;DHT22;46318;52.716;6.444;2023-07-31T04:20:35;16.70;96.40
60473;DHT22;46318;52.716;6.444;2023-07-31T04:23:01;16.70;96.30
60473;DHT22;46318;52.716;6.444;2023-07-31T04:25:29;16.70;96.50
60473;DHT22;46318;52.716;6.444;2023-07-31T04:27:56;16.80;96.50
60473;DHT22;46318;52.716;6.444;2023-07-31T04:30:22;16.80;96.70
60473;DHT22;46318;52.716;6.444;2023-07-31T04:32:50;16.80;96.80
60473;DHT22;46318;52.716;6.444;2023-07-31T04:35:22;16.80;96.80
60473;DHT22;46318;52.716;6.444;2023-07-31T04:37:49;16.80;96.60
60473;DHT22;46318;52.716;6.444;2023-07-31T04:40:16;16.80;96.60
60473;DHT22;46318;52.716;6.444;2023-07-31T04:42:42;16.80;96.60
60473;DHT22;46318;52.716;6.444;2023-07-31T04:45:10;16.80;96.60
60473;DHT22;46318;52.716;6.444;2023-07-31T04:47:36;16.80;96.50
60473;DHT22;46318;52.716;6.444;2023-07-31T04:50:02;16.80;96.60
60473;DHT22;46318;52.716;6.444;2023-07-31T04:52:34;16.80;96.60
60473;DHT22;46318;52.716;6.444;2023-07-31T04:55:06;16.80;96.60
60473;DHT22;46318;52.716;6.444;2023-07-31T04:57:34;16.80;96.50
60473;DHT22;46318;52.716;6.444;2023-07-31T05:00:03;16.80;96.80
60473;DHT22;46318;52.716;6.444;2023-07-31T05:02:45;16.80;96.70
60473;DHT22;46318;52.716;6.444;2023-07-31T05:05:29;16.90;96.70
60473;DHT22;46318;52.716;6.444;2023-07-31T05:11:40;16.90;96.60
60473;DHT22;46318;52.716;6.444;2023-07-31T05:14:08;16.90;96.50
60473;DHT22;46318;52.716;6.444;2023-07-31T05:16:35;16.90;96.60
60473;DHT22;46318;52.716;6.444;2023-07-31T05:19:04;16.90;96.50
60473;DHT22;46318;52.716;6.444;2023-07-31T05:21:33;16.90;96.50
60473;DHT22;46318;52.716;6.444;2023-07-31T05:23:59;17.00;96.60
60473;DHT22;46318;52.716;6.444;2023-07-31T05:26:25;16.90;96.70
60473;DHT22;46318;52.716;6.444;2023-07-31T05:28:51;16.90;96.80
60473;DHT22;46318;52.716;6.444;2023-07-31T05:31:17;16.90;96.50
60473;DHT22;46318;52.716;6.444;2023-07-31T05:33:43;16.90;96.50
60473;DHT22;46318;52.716;6.444;2023-07-31T05:36:10;17.00;96.50
60473;DHT22;46318;52.716;6.444;2023-07-31T05:38:39;17.00;96.50
60473;DHT22;46318;52.716;6.444;2023-07-31T05:41:07;17.00;96.40
60473;DHT22;46318;52.716;6.444;2023-07-31T05:43:41;17.00;96.30
60473;DHT22;46318;52.716;6.444;2023-07-31T05:46:08;16.90;96.40
60473;DHT22;46318;52.716;6.444;2023-07-31T05:48:35;16.90;96.20
60473;DHT22;46318;52.716;6.444;2023-07-31T05:51:01;17.00;96.30
60473;DHT22;46318;52.716;6.444;2023-07-31T05:53:31;17.00;96.10
60473;DHT22;46318;52.716;6.444;2023-07-31T05:55:57;16.90;96.10
60473;DHT22;46318;52.716;6.444;2023-07-31T05:58:23;17.00;96.10
60473;DHT22;46318;52.716;6.444;2023-07-31T06:00:49;17.00;96.00
60473;DHT22;46318;52.716;6.444;2023-07-31T06:03:15;16.90;96.10
60473;DHT22;46318;52.716;6.444;2023-07-31T06:05:41;16.90;95.90
60473;DHT22;46318;52.716;6.444;2023-07-31T06:08:07;16.90;96.10
60473;DHT22;46318;52.716;6.444;2023-07-31T06:10:33;16.90;96.10
60473;DHT22;46318;52.716;6.444;2023-07-31T06:13:00;16.90;96.10
60473;DHT22;46318;52.716;6.444;2023-07-31T06:15:26;16.90;96.00
60473;DHT22;46318;52.716;6.444;2023-07-31T06:17:52;16.90;96.00
60473;DHT22;46318;52.716;6.444;2023-07-31T06:20:18;16.90;96.00
60473;DHT22;46318;52.716;6.444;2023-07-31T06:22:44;16.90;95.90
60473;DHT22;46318;52.716;6.444;2023-07-31T06:25:10;16.90;95.90
60473;DHT22;46318;52.716;6.444;2023-07-31T06:27:37;16.90;95.80
60473;DHT22;46318;52.716;6.444;2023-07-31T06:30:03;17.00;95.90
60473;DHT22;46318;52.716;6.444;2023-07-31T06:32:29;17.00;95.90
60473;DHT22;46318;52.716;6.444;2023-07-31T06:34:55;16.90;95.90
60473;DHT22;46318;52.716;6.444;2023-07-31T06:37:21;16.90;95.90
60473;DHT22;46318;52.716;6.444;2023-07-31T06:39:47;16.90;95.80
60473;DHT22;46318;52.716;6.444;2023-07-31T06:42:13;16.90;96.00
60473;DHT22;46318;52.716;6.444;2023-07-31T06:44:39;16.90;96.10
60473;DHT22;46318;52.716;6.444;2023-07-31T06:47:05;16.90;96.30
60473;DHT22;46318;52.716;6.444;2023-07-31T06:49:34;16.90;96.30
60473;DHT22;46318;52.716;6.444;2023-07-31T06:52:00;16.90;96.10
60473;DHT22;46318;52.716;6.444;2023-07-31T06:54:26;16.90;96.40
60473;DHT22;46318;52.716;6.444;2023-07-31T06:56:52;16.90;96.40
60473;DHT22;46318;52.716;6.444;2023-07-31T06:59:18;16.90;96.50
60473;DHT22;46318;52.716;6.444;2023-07-31T07:01:44;16.90;96.60
60473;DHT22;46318;52.716;6.444;2023-07-31T07:04:10;16.90;96.60
60473;DHT22;46318;52.716;6.444;2023-07-31T07:06:44;16.80;96.60
60473;DHT22;46318;52.716;6.444;2023-07-31T07:09:13;16.80;96.50
60473;DHT22;46318;52.716;6.444;2023-07-31T07:11:39;16.80;96.70
60473;DHT22;46318;52.716;6.444;2023-07-31T07:14:05;16.80;96.60
60473;DHT22;46318;52.716;6.444;2023-07-31T07:16:31;16.80;96.60
60473;DHT22;46318;52.716;6.444;2023-07-31T07:18:57;16.80;96.60
60473;DHT22;46318;52.716;6.444;2023-07-31T07:21:23;16.80;96.60
60473;DHT22;46318;52.716;6.444;2023-07-31T07:23:50;16.80;96.70
60473;DHT22;46318;52.716;6.444;2023-07-31T07:26:17;16.90;96.60
60473;DHT22;46318;52.716;6.444;2023-07-31T07:28:43;16.80;96.70
60473;DHT22;46318;52.716;6.444;2023-07-31T07:31:09;16.90;96.60
60473;DHT22;46318;52.716;6.444;2023-07-31T07:33:35;16.80;96.60
60473;DHT22;46318;52.716;6.444;2023-07-31T07:36:04;16.90;96.70
60473;DHT22;46318;52.716;6.444;2023-07-31T07:38:35;16.90;96.90
60473;DHT22;46318;52.716;6.444;2023-07-31T07:41:01;16.90;96.70
60473;DHT22;46318;52.716;6.444;2023-07-31T07:43:32;16.90;96.70
60473;DHT22;46318;52.716;6.444;2023-07-31T07:46:01;16.90;96.70
60473;DHT22;46318;52.716;6.444;2023-07-31T07:48:27;16.90;96.80
60473;DHT22;46318;52.716;6.444;2023-07-31T07:50:57;16.90;96.70
60473;DHT22;46318;52.716;6.444;2023-07-31T07:53:23;16.90;96.60
60473;DHT22;46318;52.716;6.444;2023-07-31T07:55:49;16.90;96.60
60473;DHT22;46318;52.716;6.444;2023-07-31T07:58:15;16.90;96.70
60473;DHT22;46318;52.716;6.444;2023-07-31T08:00:41;16.90;97.00
60473;DHT22;46318;52.716;6.444;2023-07-31T08:03:07;16.90;97.10
60473;DHT22;46318;52.716;6.444;2023-07-31T08:05:34;17.00;97.10
60473;DHT22;46318;52.716;6.444;2023-07-31T08:08:00;16.90;97.10
60473;DHT22;46318;52.716;6.444;2023-07-31T08:10:26;17.00;97.30
60473;DHT22;46318;52.716;6.444;2023-07-31T08:12:55;17.00;97.50
60473;DHT22;46318;52.716;6.444;2023-07-31T08:15:21;17.00;97.30
60473;DHT22;46318;52.716;6.444;2023-07-31T08:17:47;17.10;97.20
60473;DHT22;46318;52.716;6.444;2023-07-31T08:20:13;17.10;97.40
60473;DHT22;46318;52.716;6.444;2023-07-31T08:22:41;17.10;97.60
60473;DHT22;46318;52.716;6.444;2023-07-31T08:25:07;17.10;97.60
60473;DHT22;46318;52.716;6.444;2023-07-31T08:27:33;17.20;97.50
60473;DHT22;46318;52.716;6.444;2023-07-31T08:29:59;17.20;97.50
60473;DHT22;46318;52.716;6.444;2023-07-31T08:32:28;17.20;97.50
60473;DHT22;46318;52.716;6.444;2023-07-31T08:34:54;17.20;97.50
60473;DHT22;46318;52.716;6.444;2023-07-31T08:37:20;17.20;97.60
60473;DHT22;46318;52.716;6.444;2023-07-31T08:39:49;17.20;97.80
60473;DHT22;46318;52.716;6.444;2023-07-31T08:42:17;17.30;97.70
60473;DHT22;46318;52.716;6.444;2023-07-31T08:44:46;17.30;97.90
60473;DHT22;46318;52.716;6.444;2023-07-31T08:47:19;17.30;98.00
60473;DHT22;46318;52.716;6.444;2023-07-31T08:49:47;17.30;98.20
60473;DHT22;46318;52.716;6.444;2023-07-31T08:52:16;17.30;98.20
60473;DHT22;46318;52.716;6.444;2023-07-31T08:54:46;17.40;98.30
60473;DHT22;46318;52.716;6.444;2023-07-31T08:57:18;17.40;98.20
60473;DHT22;46318;52.716;6.444;2023-07-31T08:59:46;17.40;98.30
60473;DHT22;46318;52.716;6.444;2023-07-31T09:02:14;17.40;98.20
60473;DHT22;46318;52.716;6.444;2023-07-31T09:04:43;17.50;98.30
60473;DHT22;46318;52.716;6.444;2023-07-31T09:07:15;17.50;98.30
60473;DHT22;46318;52.716;6.444;2023-07-31T09:09:42;17.50;98.60
60473;DHT22;46318;52.716;6.444;2023-07-31T09:12:11;17.50;98.30
60473;DHT22;46318;52.716;6.444;2023-07-31T09:14:38;17.50;98.40
60473;DHT22;46318;52.716;6.444;2023-07-31T09:17:05;17.50;98.30
60473;DHT22;46318;52.716;6.444;2023-07-31T09:19:37;17.60;98.50
60473;DHT22;46318;52.716;6.444;2023-07-31T09:22:09;17.60;98.40
60473;DHT22;46318;52.716;6.444;2023-07-31T09:24:35;17.60;98.50
60473;DHT22;46318;52.716;6.444;2023-07-31T09:27:02;17.60;98.50
60473;DHT22;46318;52.716;6.444;2023-07-31T09:29:36;17.60;98.50
60473;DHT22;46318;52.716;6.444;2023-07-31T09:32:04;17.70;98.50
60473;DHT22;46318;52.716;6.444;2023-07-31T09:34:38;17.70;98.70
60473;DHT22;46318;52.716;6.444;2023-07-31T09:37:05;17.70;98.60
60473;DHT22;46318;52.716;6.444;2023-07-31T09:39:48;17.70;98.50
60473;DHT22;46318;52.716;6.444;2023-07-31T09:42:29;17.70;98.50
60473;DHT22;46318;52.716;6.444;2023-07-31T09:45:09;17.70;98.60
60473;DHT22;46318;52.716;6.444;2023-07-31T09:47:36;17.80;98.70
60473;DHT22;46318;52.716;6.444;2023-07-31T09:50:08;17.80;98.70
60473;DHT22;46318;52.716;6.444;2023-07-31T09:52:38;17.80;98.70
60473;DHT22;46318;52.716;6.444;2023-07-31T09:55:08;17.90;98.80
60473;DHT22;46318;52.716;6.444;2023-07-31T09:57:44;17.90;98.90
60473;DHT22;46318;52.716;6.444;2023-07-31T10:00:23;18.00;98.90
60473;DHT22;46318;52.716;6.444;2023-07-31T10:03:17;18.00;98.90
60473;DHT22;46318;52.716;6.444;2023-07-31T10:05:52;18.00;99.10
60473;DHT22;46318;52.716;6.444;2023-07-31T10:08:27;18.10;98.90
60473;DHT22;46318;52.716;6.444;2023-07-31T10:11:04;18.10;98.80
60473;DHT22;46318;52.716;6.444;2023-07-31T10:13:38;18.10;98.90
60473;DHT22;46318;52.716;6.444;2023-07-31T10:16:05;18.10;98.90
60473;DHT22;46318;52.716;6.444;2023-07-31T10:18:34;18.20;99.00
60473;DHT22;46318;52.716;6.444;2023-07-31T10:21:05;18.20;99.00
60473;DHT22;46318;52.716;6.444;2023-07-31T10:23:35;18.20;98.80
60473;DHT22;46318;52.716;6.444;2023-07-31T10:26:02;18.20;98.90
60473;DHT22;46318;52.716;6.444;2023-07-31T10:28:43;18.30;99.00
60473;DHT22;46318;52.716;6.444;2023-07-31T10:31:23;18.30;98.90
60473;DHT22;46318;52.716;6.444;2023-07-31T10:33:52;18.40;99.00
60473;DHT22;46318;52.716;6.444;2023-07-31T10:36:25;18.40;98.90
60473;DHT22;46318;52.716;6.444;2023-07-31T10:38:55;18.40;99.00
60473;DHT22;46318;52.716;6.444;2023-07-31T10:41:29;18.40;98.90
60473;DHT22;46318;52.716;6.444;2023-07-31T10:44:03;18.50;98.90
60473;DHT22;46318;52.716;6.444;2023-07-31T10:46:32;18.50;98.80
60473;DHT22;46318;52.716;6.444;2023-07-31T10:49:02;18.50;98.60
60473;DHT22;46318;52.716;6.444;2023-07-31T10:51:37;18.50;98.80
60473;DHT22;46318;52.716;6.444;2023-07-31T10:54:16;18.60;98.90
60473;DHT22;46318;52.716;6.444;2023-07-31T10:56:53;18.60;99.00
60473;DHT22;46318;52.716;6.444;2023-07-31T10:59:28;18.70;99.00
60473;DHT22;46318;52.716;6.444;2023-07-31T11:02:26;18.70;99.10
60473;DHT22;46318;52.716;6.444;2023-07-31T11:05:09;18.70;99.00
60473;DHT22;46318;52.716;6.444;2023-07-31T11:07:51;18.70;98.90
60473;DHT22;46318;52.716;6.444;2023-07-31T11:10:22;18.70;99.10
60473;DHT22;46318;52.716;6.444;2023-07-31T11:12:51;18.70;98.90
60473;DHT22;46318;52.716;6.444;2023-07-31T11:15:26;18.70;99.00
60473;DHT22;46318;52.716;6.444;2023-07-31T11:17:53;18.70;99.10
60473;DHT22;46318;52.716;6.444;2023-07-31T11:20:34;18.80;99.00
60473;DHT22;46318;52.716;6.444;2023-07-31T11:26:50;18.90;99.30
60473;DHT22;46318;52.716;6.444;2023-07-31T11:30:02;18.90;99.10
60473;DHT22;46318;52.716;6.444;2023-07-31T11:32:38;18.90;98.90
60473;DHT22;46318;52.716;6.444;2023-07-31T11:35:07;18.90;98.90
60473;DHT22;46318;52.716;6.444;2023-07-31T11:37:43;18.90;98.80
60473;DHT22;46318;52.716;6.444;2023-07-31T11:40:10;19.00;98.90
60473;DHT22;46318;52.716;6.444;2023-07-31T11:42:37;19.00;98.90
60473;DHT22;46318;52.716;6.444;2023-07-31T11:45:07;19.00;98.90
60473;DHT22;46318;52.716;6.444;2023-07-31T11:47:38;19.00;98.90
60473;DHT22;46318;52.716;6.444;2023-07-31T11:50:06;19.10;98.90
60473;DHT22;46318;52.716;6.444;2023-07-31T11:52:47;19.10;99.10
60473;DHT22;46318;52.716;6.444;2023-07-31T11:55:20;19.20;98.90
60473;DHT22;46318;52.716;6.444;2023-07-31T11:57:47;19.20;98.60
60473;DHT22;46318;52.716;6.444;2023-07-31T12:00:14;19.20;98.50
60473;DHT22;46318;52.716;6.444;2023-07-31T12:02:48;19.20;98.50
60473;DHT22;46318;52.716;6.444;2023-07-31T12:05:23;19.20;98.40
60473;DHT22;46318;52.716;6.444;2023-07-31T12:07:59;19.20;98.50
60473;DHT22;46318;52.716;6.444;2023-07-31T12:10:42;19.30;98.70
60473;DHT22;46318;52.716;6.444;2023-07-31T12:13:26;19.30;98.60
60473;DHT22;46318;52.716;6.444;2023-07-31T12:16:26;19.40;98.50
60473;DHT22;46318;52.716;6.444;2023-07-31T12:18:57;19.40;98.20
60473;DHT22;46318;52.716;6.444;2023-07-31T12:21:35;19.40;98.00
60473;DHT22;46318;52.716;6.444;2023-07-31T12:24:04;19.40;97.90
60473;DHT22;46318;52.716;6.444;2023-07-31T12:26:38;19.40;97.80
60473;DHT22;46318;52.716;6.444;2023-07-31T12:29:07;19.50;97.60
60473;DHT22;46318;52.716;6.444;2023-07-31T12:31:34;19.50;97.40
60473;DHT22;46318;52.716;6.444;2023-07-31T12:34:00;19.60;97.10
60473;DHT22;46318;52.716;6.444;2023-07-31T12:36:30;19.60;97.20
60473;DHT22;46318;52.716;6.444;2023-07-31T12:39:01;19.80;97.00
60473;DHT22;46318;52.716;6.444;2023-07-31T12:41:27;19.90;96.80
60473;DHT22;46318;52.716;6.444;2023-07-31T12:43:59;20.10;96.40
60473;DHT22;46318;52.716;6.444;2023-07-31T12:46:25;20.20;96.30
60473;DHT22;46318;52.716;6.444;2023-07-31T12:48:54;20.30;95.50
60473;DHT22;46318;52.716;6.444;2023-07-31T12:51:23;20.30;95.10
60473;DHT22;46318;52.716;6.444;2023-07-31T12:53:52;20.40;94.20
60473;DHT22;46318;52.716;6.444;2023-07-31T12:56:20;20.30;93.90
60473;DHT22;46318;52.716;6.444;2023-07-31T12:58:49;20.20;93.80
60473;DHT22;46318;52.716;6.444;2023-07-31T13:01:18;20.10;93.50
60473;DHT22;46318;52.716;6.444;2023-07-31T13:03:46;20.10;94.20
60473;DHT22;46318;52.716;6.444;2023-07-31T13:06:15;20.10;94.30
60473;DHT22;46318;52.716;6.444;2023-07-31T13:08:54;20.00;94.30
60473;DHT22;46318;52.716;6.444;2023-07-31T13:11:22;20.00;94.30
60473;DHT22;46318;52.716;6.444;2023-07-31T13:13:50;20.00;94.60
60473;DHT22;46318;52.716;6.444;2023-07-31T13:16:17;20.10;94.70
60473;DHT22;46318;52.716;6.444;2023-07-31T13:18:50;20.10;94.40
60473;DHT22;46318;52.716;6.444;2023-07-31T13:21:18;20.10;94.10
60473;DHT22;46318;52.716;6.444;2023-07-31T13:23:44;20.10;94.00
60473;DHT22;46318;52.716;6.444;2023-07-31T13:26:10;20.20;93.80
60473;DHT22;46318;52.716;6.444;2023-07-31T13:28:37;20.10;93.50
60473;DHT22;46318;52.716;6.444;2023-07-31T13:31:03;20.10;93.60
60473;DHT22;46318;52.716;6.444;2023-07-31T13:33:39;20.10;93.80
60473;DHT22;46318;52.716;6.444;2023-07-31T13:36:07;20.10;93.90
60473;DHT22;46318;52.716;6.444;2023-07-31T13:38:43;20.10;94.10
60473;DHT22;46318;52.716;6.444;2023-07-31T13:41:08;20.00;94.40
60473;DHT22;46318;52.716;6.444;2023-07-31T13:43:37;20.00;94.60
60473;DHT22;46318;52.716;6.444;2023-07-31T13:46:03;20.00;94.60
60473;DHT22;46318;52.716;6.444;2023-07-31T13:48:40;20.00;94.60
60473;DHT22;46318;52.716;6.444;2023-07-31T13:51:11;20.00;94.70
60473;DHT22;46318;52.716;6.444;2023-07-31T13:53:40;20.00;94.70
60473;DHT22;46318;52.716;6.444;2023-07-31T13:56:06;20.00;94.70
60473;DHT22;46318;52.716;6.444;2023-07-31T13:59:03;20.00;94.60
60473;DHT22;46318;52.716;6.444;2023-07-31T14:02:08;20.00;94.60
60473;DHT22;46318;52.716;6.444;2023-07-31T14:04:45;19.90;94.30
60473;DHT22;46318;52.716;6.444;2023-07-31T14:07:11;19.90;94.30
60473;DHT22;46318;52.716;6.444;2023-07-31T14:09:43;19.90;94.50
60473;DHT22;46318;52.716;6.444;2023-07-31T14:12:12;20.00;94.60
60473;DHT22;46318;52.716;6.444;2023-07-31T14:14:47;20.00;94.50
60473;DHT22;46318;52.716;6.444;2023-07-31T14:17:13;20.10;94.50
60473;DHT22;46318;52.716;6.444;2023-07-31T14:19:47;20.10;94.30
60473;DHT22;46318;52.716;6.444;2023-07-31T14:23:08;20.10;93.90
60473;DHT22;46318;52.716;6.444;2023-07-31T14:25:34;20.10;93.40
60473;DHT22;46318;52.716;6.444;2023-07-31T14:28:00;20.10;93.60
60473;DHT22;46318;52.716;6.444;2023-07-31T14:30:26;20.10;93.40
60473;DHT22;46318;52.716;6.444;2023-07-31T14:32:57;20.10;93.00
60473;DHT22;46318;52.716;6.444;2023-07-31T14:35:26;20.10;93.00
60473;DHT22;46318;52.716;6.444;2023-07-31T14:37:52;20.10;92.90
60473;DHT22;46318;52.716;6.444;2023-07-31T14:40:18;20.10;92.70
60473;DHT22;46318;52.716;6.444;2023-07-31T14:42:43;20.10;92.60
60473;DHT22;46318;52.716;6.444;2023-07-31T14:45:10;20.10;92.50
60473;DHT22;46318;52.716;6.444;2023-07-31T14:47:36;20.10;92.10
60473;DHT22;46318;52.716;6.444;2023-07-31T14:50:02;20.10;92.00
60473;DHT22;46318;52.716;6.444;2023-07-31T14:52:29;20.10;92.00
60473;DHT22;46318;52.716;6.444;2023-07-31T14:54:55;20.10;91.90
60473;DHT22;46318;52.716;6.444;2023-07-31T14:57:21;20.10;92.00
60473;DHT22;46318;52.716;6.444;2023-07-31T14:59:47;20.10;92.00
60473;DHT22;46318;52.716;6.444;2023-07-31T15:02:14;20.00;91.90
60473;DHT22;46318;52.716;6.444;2023-07-31T15:04:40;20.00;91.90
60473;DHT22;46318;52.716;6.444;2023-07-31T15:07:06;20.00;91.80
60473;DHT22;46318;52.716;6.444;2023-07-31T15:09:32;20.00;91.90
60473;DHT22;46318;52.716;6.444;2023-07-31T15:12:01;20.00;91.90
60473;DHT22;46318;52.716;6.444;2023-07-31T15:14:27;20.00;92.10
60473;DHT22;46318;52.716;6.444;2023-07-31T15:16:54;20.00;91.90
60473;DHT22;46318;52.716;6.444;2023-07-31T15:19:19;20.00;91.90
60473;DHT22;46318;52.716;6.444;2023-07-31T15:21:45;20.00;91.80
60473;DHT22;46318;52.716;6.444;2023-07-31T15:24:11;20.00;91.70
60473;DHT22;46318;52.716;6.444;2023-07-31T15:26:37;19.90;91.70
60473;DHT22;46318;52.716;6.444;2023-07-31T15:29:07;19.90;91.80
60473;DHT22;46318;52.716;6.444;2023-07-31T15:31:44;19.80;92.10
60473;DHT22;46318;52.716;6.444;2023-07-31T15:34:13;19.80;92.50
60473;DHT22;46318;52.716;6.444;2023-07-31T15:36:40;19.80;92.80
60473;DHT22;46318;52.716;6.444;2023-07-31T15:39:07;19.70;93.10
60473;DHT22;46318;52.716;6.444;2023-07-31T15:41:36;19.70;93.20
60473;DHT22;46318;52.716;6.444;2023-07-31T15:44:04;19.60;93.40
60473;DHT22;46318;52.716;6.444;2023-07-31T15:46:30;19.60;93.70
60473;DHT22;46318;52.716;6.444;2023-07-31T15:48:56;19.60;93.90
60473;DHT22;46318;52.716;6.444;2023-07-31T15:51:25;19.60;94.20
60473;DHT22;46318;52.716;6.444;2023-07-31T15:53:52;19.50;94.20
60473;DHT22;46318;52.716;6.444;2023-07-31T15:56:21;19.50;94.20
60473;DHT22;46318;52.716;6.444;2023-07-31T15:58:47;19.50;94.40
60473;DHT22;46318;52.716;6.444;2023-07-31T16:01:16;19.60;94.50